createdAt,value
2022-12-05T00:12:40.798Z,7.43
2022-12-05T00:32:40.774Z,7.37
2022-12-05T00:52:40.680Z,7.37
2022-12-05T01:12:40.691Z,7.37
2022-12-05T01:32:40.706Z,7.56
2022-12-05T01:52:40.722Z,7.43
2022-12-05T02:12:40.725Z,7.37
2022-12-05T02:32:40.739Z,7.18
2022-12-05T02:52:40.753Z,7.50
2022-12-05T03:12:40.762Z,7.25
2022-12-05T03:32:40.674Z,7.62
2022-12-05T03:52:40.681Z,7.43
2022-12-05T04:12:40.720Z,7.31
2022-12-05T04:32:40.696Z,7.43
2022-12-05T04:52:40.707Z,7.50
2022-12-05T05:12:40.725Z,7.43
2022-12-05T05:32:40.735Z,7.43
2022-12-05T05:52:40.747Z,7.43
2022-12-05T06:12:40.663Z,7.43
2022-12-05T06:32:40.678Z,7.43
2022-12-05T06:52:40.690Z,7.43
2022-12-05T07:12:40.702Z,7.43
2022-12-05T07:32:40.714Z,7.43
2022-12-05T07:52:40.747Z,7.43
2022-12-05T08:12:40.643Z,7.43
2022-12-05T08:32:40.659Z,7.43
2022-12-05T08:52:40.670Z,7.56
2022-12-05T09:12:40.685Z,7.43
2022-12-05T09:32:40.704Z,7.56
2022-12-05T09:52:40.710Z,7.43
2022-12-05T10:12:40.736Z,7.50
2022-12-05T10:32:40.641Z,7.50
2022-12-05T10:52:40.658Z,7.68
2022-12-05T11:12:40.670Z,7.56
2022-12-05T11:32:40.691Z,7.68
2022-12-05T11:52:40.706Z,7.81
2022-12-05T12:12:40.626Z,7.75
2022-12-05T12:32:40.631Z,7.56
2022-12-05T12:52:40.647Z,7.68
2022-12-05T13:12:40.660Z,7.75
2022-12-05T13:32:40.670Z,7.87
2022-12-05T13:52:40.596Z,7.68
2022-12-05T14:12:40.600Z,7.75
2022-12-05T14:32:40.610Z,7.50
2022-12-05T14:52:40.647Z,7.68
2022-12-05T15:12:40.694Z,7.68
2022-12-05T15:32:40.655Z,7.75
2022-12-05T15:52:40.564Z,7.68
2022-12-05T16:12:40.604Z,7.75
2022-12-05T16:32:40.590Z,7.75
2022-12-05T16:52:40.603Z,7.87
2022-12-05T17:12:40.622Z,7.62
2022-12-05T17:32:40.671Z,7.87
2022-12-05T17:52:40.732Z,7.87
2022-12-05T18:12:40.662Z,7.75
2022-12-05T18:32:40.731Z,7.87
2022-12-05T18:52:40.577Z,7.75
2022-12-05T19:12:40.748Z,7.75
2022-12-05T19:32:40.626Z,7.56
2022-12-05T19:52:40.622Z,7.68
2022-12-05T20:12:40.630Z,7.56
2022-12-05T20:32:40.555Z,7.56
2022-12-05T20:52:40.561Z,7.50
2022-12-05T21:12:40.580Z,7.43
2022-12-05T21:32:40.591Z,7.43
2022-12-05T21:52:40.605Z,7.50
2022-12-05T22:12:40.619Z,7.43
2022-12-05T22:32:40.637Z,7.37
2022-12-05T22:52:40.608Z,7.56
2022-12-05T23:12:40.564Z,7.43
2022-12-05T23:32:40.579Z,7.43
2022-12-05T23:52:40.597Z,7.56
